Kine — C6WT4 — position and weather

sailwx.info

Track history (hours):
 
Tides and Currents Weather Stations Pressure Air Temp Water Temp Dewpoint Dewpoint Depression Visibility Wind Speed Wind Dir Waves Ship Positions

Kine

Last reported at 2016-Dec-04 06:28 UTC. Time now 2016-Dec-06 16:08 UTC.
Position N 55°31' E 015°23'.

Length 89 m; draft 5 m.

Type: Cargo ship. MMSI: 311117000.

Date/timePositionNaut miles runAvg speedWind from/ knotsBaromVisibWave heightAir tempDewpointWater temp
2016-Dec-04 06:28N 55°31' E 015°23'8 8.7
2016-Dec-04 05:33N 55°28' E 015°10'9 9.2
2016-Dec-04 04:33N 55°26' E 014°54'10 9.6
2016-Dec-04 03:33N 55°22' E 014°38'9 9.2
2016-Dec-04 02:33N 55°16' E 014°26'9 8.7
2016-Dec-04 01:33N 55°11' E 014°14'9 8.9
2016-Dec-04 00:32N 55°11' E 013°58'9 9.1
2016-Dec-03 23:32N 55°12' E 013°42'11 9.1
2016-Dec-03 22:18N 55°13' E 013°23'7 8.8
2016-Dec-03 21:28N 55°14' E 013°10'8 9.1
2016-Dec-03 20:33N 55°15' E 012°56'9 9.0
2016-Dec-03 19:33N 55°18' E 012°41'8 8.0
2016-Dec-03 18:33N 55°26' E 012°40'9 8.9
2016-Dec-03 17:33N 55°34' E 012°42'9 9.2
2016-Dec-03 16:33N 55°44' E 012°41'9 9.2
2016-Dec-03 15:33N 55°53' E 012°40'9 9.1
2016-Dec-03 14:33N 56°02' E 012°39'9 8.7
2016-Dec-03 13:33N 56°08' E 012°28'10 9.6
2016-Dec-03 12:33N 56°13' E 012°14'58 9.6
2016-Dec-03 06:32N 57°07' E 011°37'1010.4
2016-Dec-03 05:33N 57°17' E 011°31'10 9.7
2016-Dec-03 04:33N 57°26' E 011°25'9 9.4
2016-Dec-03 03:33N 57°34' E 011°17'10 9.6
2016-Dec-03 02:33N 57°43' E 011°08'9 9.4
2016-Dec-03 01:33N 57°51' E 010°60'10 9.4
2016-Dec-03 00:33N 57°59' E 010°51'5037.3
2016-Dec-02 23:13N 58°42' E 010°03'4 6.5
2016-Dec-02 22:32N 58°46' E 009°59'6 6.3
2016-Dec-02 21:33N 58°52' E 009°53'14 6.8
2016-Dec-02 19:33N 58°40' E 010°06'9 9.4
2016-Dec-02 18:33N 58°48' E 009°57'1514.4
2016-Dec-02 17:32N 59°01' E 009°45'6 5.7
2016-Dec-02 16:32N 59°05' E 009°38'120113.8
2016-Dec-02 15:29N 58°57' E 005°45'0 0.0
2016-Dec-02 14:27N 58°57' E 005°45'0 0.0
2016-Dec-02 13:33N 58°57' E 005°45'0 0.0
2016-Dec-02 12:31N 58°57' E 005°45'0 0.0
2016-Dec-02 11:33N 58°57' E 005°45'0 0.0
2016-Dec-02 10:30N 58°57' E 005°45'0 0.0
2016-Dec-02 07:31N 58°57' E 005°45'0 0.0
2016-Dec-02 06:29N 58°57' E 005°45'0 0.0
2016-Dec-02 05:31N 58°57' E 005°45'0 0.0
2016-Dec-02 04:30N 58°57' E 005°45'0 0.0
2016-Dec-02 03:30N 58°57' E 005°45'0 0.0
2016-Dec-02 02:29N 58°57' E 005°45'0 0.0
2016-Dec-02 01:33N 58°57' E 005°45'1 1.0
2016-Dec-02 00:33N 58°58' E 005°46'5 4.8
2016-Dec-01 23:32N 59°01' E 005°40'4 4.0
2016-Dec-01 22:33N 58°60' E 005°33'7 6.8
2016-Dec-01 21:32N 58°53' E 005°32'6 5.7
2016-Dec-01 20:32N 58°48' E 005°25'5 5.5
2016-Dec-01 19:33N 58°43' E 005°23'6 6.4
2016-Dec-01 18:33N 58°38' E 005°30'13353.7
2016-Dec-01 16:04N 59°03' E 009°42'127242.2
2016-Dec-01 15:33N 58°25' E 005°48'128129.7
2016-Dec-01 14:33N 58°56' E 009°47'7 6.5
2016-Dec-01 13:33N 58°50' E 009°44'11546.7
2016-Dec-01 11:05N 58°13' E 006°15'3 5.2
2016-Dec-01 10:33N 58°11' E 006°19'4 4.4
2016-Dec-01 09:33N 58°08' E 006°25'7777.2
2016-Dec-01 08:33N 58°18' E 008°50'8 8.3
2016-Dec-01 07:33N 58°12' E 008°40'8 8.2
2016-Dec-01 06:33N 58°07' E 008°27'4948.9
2016-Dec-01 05:33N 57°58' E 006°56'4 4.0
2016-Dec-01 04:32N 57°57' E 007°03'5 5.4
2016-Dec-01 03:33N 57°56' E 007°13'6 6.0
2016-Dec-01 02:33N 57°56' E 007°24'1212.1
2016-Dec-01 01:33N 57°56' E 007°01'1110.6
2016-Dec-01 00:33N 57°60' E 006°43'3938.8
2016-Nov-30 23:33N 57°54' E 007°55'6 5.7
2016-Nov-30 22:33N 57°54' E 008°06'7271.9
2016-Nov-30 21:33N 58°20' E 005°59'1010.1
2016-Nov-30 20:33N 58°27' E 005°45'1010.1
2016-Nov-30 19:33N 58°35' E 005°34'10 9.7
2016-Nov-30 18:33N 58°44' E 005°27'9 8.7
2016-Nov-30 17:33N 58°52' E 005°31'10 9.6
2016-Nov-30 16:33N 59°02' E 005°33'8 7.7
2016-Nov-30 15:34N 58°59' E 005°47'2 2.3
2016-Nov-30 14:33N 58°57' E 005°45'0 0.0
2016-Nov-30 13:33N 58°57' E 005°45'0 0.0
2016-Nov-30 12:33N 58°57' E 005°45'0 0.0
2016-Nov-30 11:33N 58°57' E 005°45'0 0.0
2016-Nov-30 10:33N 58°57' E 005°45'0 0.0
2016-Nov-30 09:33N 58°57' E 005°45'0 0.0
2016-Nov-30 08:33N 58°57' E 005°45'0 0.0
2016-Nov-30 07:33N 58°57' E 005°45'0 0.0
2016-Nov-30 06:33N 58°57' E 005°45'0 0.0
2016-Nov-30 05:33N 58°57' E 005°45'0 0.0
2016-Nov-30 04:33N 58°57' E 005°45'0 0.0
2016-Nov-30 03:33N 58°57' E 005°45'0 0.0
2016-Nov-30 02:33N 58°57' E 005°45'0 0.0
2016-Nov-30 01:30N 58°57' E 005°45'0 0.0
2016-Nov-30 00:33N 58°57' E 005°45'0 0.0
2016-Nov-29 23:33N 58°57' E 005°45'0 0.0
2016-Nov-29 22:30N 58°57' E 005°45'0 0.0
2016-Nov-29 21:30N 58°57' E 005°45'0 0.0
2016-Nov-29 20:33N 58°57' E 005°45'0 0.0
2016-Nov-29 19:33N 58°57' E 005°45'0 0.0
2016-Nov-29 18:33N 58°57' E 005°45'0 0.0
2016-Nov-29 17:33N 58°57' E 005°45'0 0.0
2016-Nov-29 16:33N 58°57' E 005°45'0 0.0
2016-Nov-29 15:33N 58°57' E 005°45'0 0.0
2016-Nov-29 14:33N 58°57' E 005°45'0 0.0
2016-Nov-29 13:33N 58°57' E 005°45'0 0.0
2016-Nov-29 12:33N 58°57' E 005°45'0 0.0
2016-Nov-29 11:30N 58°57' E 005°45'0 0.0
2016-Nov-29 10:33N 58°57' E 005°45'0 0.0
2016-Nov-29 09:33N 58°57' E 005°45'0 0.0
2016-Nov-29 08:27N 58°57' E 005°45'0 0.0
2016-Nov-29 07:33N 58°57' E 005°45'5 4.6
2016-Nov-29 06:33N 59°01' E 005°43'6 6.0
2016-Nov-29 05:33N 58°58' E 005°33'9 9.0
2016-Nov-29 04:33N 58°49' E 005°27'7 7.1
2016-Nov-29 03:33N 58°42' E 005°23'8 8.5
2016-Nov-29 02:33N 58°35' E 005°32'8 7.8
2016-Nov-29 01:32N 58°29' E 005°41'5 4.8
2016-Nov-29 00:33N 58°25' E 005°47'4 4.4
2016-Nov-28 23:33N 58°22' E 005°54'6 6.0
2016-Nov-28 22:33N 58°18' E 006°02'8 7.7
2016-Nov-28 21:33N 58°14' E 006°13'8 7.5
2016-Nov-28 20:29N 58°08' E 006°24'6 6.8
2016-Nov-28 19:33N 58°04' E 006°34'7 6.6
2016-Nov-28 18:33N 58°01' E 006°45'7 6.6
2016-Nov-28 17:33N 57°58' E 006°56'7 7.1
2016-Nov-28 16:32N 57°56' E 007°09'113 8.7
2016-Nov-28 03:31N 57°48' E 010°42'8 7.9
2016-Nov-28 02:33N 57°45' E 010°55'7 7.1
2016-Nov-28 01:33N 57°40' E 011°04'7 7.0
2016-Nov-28 00:33N 57°35' E 011°14'7 7.1
2016-Nov-27 23:34N 57°30' E 011°23'7 6.9
2016-Nov-27 22:33N 57°24' E 011°29'7 6.9
2016-Nov-27 21:33N 57°18' E 011°34'7 6.5
2016-Nov-27 20:33N 57°12' E 011°39'64 5.6
2016-Nov-27 09:07N 56°14' E 012°27'3 5.9
2016-Nov-27 08:33N 56°11' E 012°30'7 6.9
2016-Nov-27 07:33N 56°05' E 012°37'7 6.6
2016-Nov-27 06:34N 55°59' E 012°42'8 7.7
2016-Nov-27 05:34N 55°52' E 012°44'8 7.6
2016-Nov-27 04:33N 55°44' E 012°41'8 7.9
2016-Nov-27 03:33N 55°36' E 012°42'8 8.5
2016-Nov-27 02:34N 55°28' E 012°43'9 9.0
2016-Nov-27 01:33N 55°19' E 012°42'8 8.5
2016-Nov-27 00:33N 55°16' E 012°56'9 8.8
2016-Nov-26 23:33N 55°16' E 013°12'17 8.4
2016-Nov-26 21:33N 55°15' E 013°41'8 8.2
2016-Nov-26 20:33N 55°14' E 013°55'9 8.2
2016-Nov-26 19:30N 55°14' E 014°11'7 7.4
2016-Nov-26 18:33N 55°18' E 014°21'8 8.4
2016-Nov-26 17:33N 55°24' E 014°31'7 7.5
2016-Nov-26 16:33N 55°28' E 014°42'7 7.0
2016-Nov-26 15:33N 55°31' E 014°53'6 6.2
2016-Nov-26 14:33N 55°33' E 015°04'6 6.1
2016-Nov-26 13:32N 55°33' E 015°15'7 6.3
2016-Nov-26 12:30N 55°35' E 015°26'6 6.0
2016-Nov-26 11:33N 55°37' E 015°35'  
Track history (hours):
 
Tides and Currents Weather Stations Pressure Air Temp Water Temp Dewpoint Dewpoint Depression Visibility Wind Speed Wind Dir Waves Ship Positions

Kine

Last reported at 2016-Dec-04 06:28 UTC. Time now 2016-Dec-06 16:08 UTC.
Position N 55°31' E 015°23'.

Length 89 m; draft 5 m.

Type: Cargo ship. MMSI: 311117000.

Date/timePositionNaut miles runAvg speedWind from/ knotsBaromVisibWave heightAir tempDewpointWater temp
2016-Dec-04 06:28N 55°31' E 015°23'8 8.7
2016-Dec-04 05:33N 55°28' E 015°10'9 9.2
2016-Dec-04 04:33N 55°26' E 014°54'10 9.6
2016-Dec-04 03:33N 55°22' E 014°38'9 9.2
2016-Dec-04 02:33N 55°16' E 014°26'9 8.7
2016-Dec-04 01:33N 55°11' E 014°14'9 8.9
2016-Dec-04 00:32N 55°11' E 013°58'9 9.1
2016-Dec-03 23:32N 55°12' E 013°42'11 9.1
2016-Dec-03 22:18N 55°13' E 013°23'7 8.8
2016-Dec-03 21:28N 55°14' E 013°10'8 9.1
2016-Dec-03 20:33N 55°15' E 012°56'9 9.0
2016-Dec-03 19:33N 55°18' E 012°41'8 8.0
2016-Dec-03 18:33N 55°26' E 012°40'9 8.9
2016-Dec-03 17:33N 55°34' E 012°42'9 9.2
2016-Dec-03 16:33N 55°44' E 012°41'9 9.2
2016-Dec-03 15:33N 55°53' E 012°40'9 9.1
2016-Dec-03 14:33N 56°02' E 012°39'9 8.7
2016-Dec-03 13:33N 56°08' E 012°28'10 9.6
2016-Dec-03 12:33N 56°13' E 012°14'58 9.6
2016-Dec-03 06:32N 57°07' E 011°37'1010.4
2016-Dec-03 05:33N 57°17' E 011°31'10 9.7
2016-Dec-03 04:33N 57°26' E 011°25'9 9.4
2016-Dec-03 03:33N 57°34' E 011°17'10 9.6
2016-Dec-03 02:33N 57°43' E 011°08'9 9.4
2016-Dec-03 01:33N 57°51' E 010°60'10 9.4
2016-Dec-03 00:33N 57°59' E 010°51'5037.3
2016-Dec-02 23:13N 58°42' E 010°03'4 6.5
2016-Dec-02 22:32N 58°46' E 009°59'6 6.3
2016-Dec-02 21:33N 58°52' E 009°53'14 6.8
2016-Dec-02 19:33N 58°40' E 010°06'9 9.4
2016-Dec-02 18:33N 58°48' E 009°57'1514.4
2016-Dec-02 17:32N 59°01' E 009°45'6 5.7
2016-Dec-02 16:32N 59°05' E 009°38'120113.8
2016-Dec-02 15:29N 58°57' E 005°45'0 0.0
2016-Dec-02 14:27N 58°57' E 005°45'0 0.0
2016-Dec-02 13:33N 58°57' E 005°45'0 0.0
2016-Dec-02 12:31N 58°57' E 005°45'0 0.0
2016-Dec-02 11:33N 58°57' E 005°45'0 0.0
2016-Dec-02 10:30N 58°57' E 005°45'0 0.0
2016-Dec-02 07:31N 58°57' E 005°45'0 0.0
2016-Dec-02 06:29N 58°57' E 005°45'0 0.0
2016-Dec-02 05:31N 58°57' E 005°45'0 0.0
2016-Dec-02 04:30N 58°57' E 005°45'0 0.0
2016-Dec-02 03:30N 58°57' E 005°45'0 0.0
2016-Dec-02 02:29N 58°57' E 005°45'0 0.0
2016-Dec-02 01:33N 58°57' E 005°45'1 1.0
2016-Dec-02 00:33N 58°58' E 005°46'5 4.8
2016-Dec-01 23:32N 59°01' E 005°40'4 4.0
2016-Dec-01 22:33N 58°60' E 005°33'7 6.8
2016-Dec-01 21:32N 58°53' E 005°32'6 5.7
2016-Dec-01 20:32N 58°48' E 005°25'5 5.5
2016-Dec-01 19:33N 58°43' E 005°23'6 6.4
2016-Dec-01 18:33N 58°38' E 005°30'13353.7
2016-Dec-01 16:04N 59°03' E 009°42'127242.2
2016-Dec-01 15:33N 58°25' E 005°48'128129.7
2016-Dec-01 14:33N 58°56' E 009°47'7 6.5
2016-Dec-01 13:33N 58°50' E 009°44'11546.7
2016-Dec-01 11:05N 58°13' E 006°15'3 5.2
2016-Dec-01 10:33N 58°11' E 006°19'4 4.4
2016-Dec-01 09:33N 58°08' E 006°25'7777.2
2016-Dec-01 08:33N 58°18' E 008°50'8 8.3
2016-Dec-01 07:33N 58°12' E 008°40'8 8.2
2016-Dec-01 06:33N 58°07' E 008°27'4948.9
2016-Dec-01 05:33N 57°58' E 006°56'4 4.0
2016-Dec-01 04:32N 57°57' E 007°03'5 5.4
2016-Dec-01 03:33N 57°56' E 007°13'6 6.0
2016-Dec-01 02:33N 57°56' E 007°24'1212.1
2016-Dec-01 01:33N 57°56' E 007°01'1110.6
2016-Dec-01 00:33N 57°60' E 006°43'3938.8
2016-Nov-30 23:33N 57°54' E 007°55'6 5.7
2016-Nov-30 22:33N 57°54' E 008°06'7271.9
2016-Nov-30 21:33N 58°20' E 005°59'1010.1
2016-Nov-30 20:33N 58°27' E 005°45'1010.1
2016-Nov-30 19:33N 58°35' E 005°34'10 9.7
2016-Nov-30 18:33N 58°44' E 005°27'9 8.7
2016-Nov-30 17:33N 58°52' E 005°31'10 9.6
2016-Nov-30 16:33N 59°02' E 005°33'8 7.7
2016-Nov-30 15:34N 58°59' E 005°47'2 2.3
2016-Nov-30 14:33N 58°57' E 005°45'0 0.0
2016-Nov-30 13:33N 58°57' E 005°45'0 0.0
2016-Nov-30 12:33N 58°57' E 005°45'0 0.0
2016-Nov-30 11:33N 58°57' E 005°45'0 0.0
2016-Nov-30 10:33N 58°57' E 005°45'0 0.0
2016-Nov-30 09:33N 58°57' E 005°45'0 0.0
2016-Nov-30 08:33N 58°57' E 005°45'0 0.0
2016-Nov-30 07:33N 58°57' E 005°45'0 0.0
2016-Nov-30 06:33N 58°57' E 005°45'0 0.0
2016-Nov-30 05:33N 58°57' E 005°45'0 0.0
2016-Nov-30 04:33N 58°57' E 005°45'0 0.0
2016-Nov-30 03:33N 58°57' E 005°45'0 0.0
2016-Nov-30 02:33N 58°57' E 005°45'0 0.0
2016-Nov-30 01:30N 58°57' E 005°45'0 0.0
2016-Nov-30 00:33N 58°57' E 005°45'0 0.0
2016-Nov-29 23:33N 58°57' E 005°45'0 0.0
2016-Nov-29 22:30N 58°57' E 005°45'0 0.0
2016-Nov-29 21:30N 58°57' E 005°45'0 0.0
2016-Nov-29 20:33N 58°57' E 005°45'0 0.0
2016-Nov-29 19:33N 58°57' E 005°45'0 0.0
2016-Nov-29 18:33N 58°57' E 005°45'0 0.0
2016-Nov-29 17:33N 58°57' E 005°45'0 0.0
2016-Nov-29 16:33N 58°57' E 005°45'0 0.0
2016-Nov-29 15:33N 58°57' E 005°45'0 0.0
2016-Nov-29 14:33N 58°57' E 005°45'0 0.0
2016-Nov-29 13:33N 58°57' E 005°45'0 0.0
2016-Nov-29 12:33N 58°57' E 005°45'0 0.0
2016-Nov-29 11:30N 58°57' E 005°45'0 0.0
2016-Nov-29 10:33N 58°57' E 005°45'0 0.0
2016-Nov-29 09:33N 58°57' E 005°45'0 0.0
2016-Nov-29 08:27N 58°57' E 005°45'0 0.0
2016-Nov-29 07:33N 58°57' E 005°45'5 4.6
2016-Nov-29 06:33N 59°01' E 005°43'6 6.0
2016-Nov-29 05:33N 58°58' E 005°33'9 9.0
2016-Nov-29 04:33N 58°49' E 005°27'7 7.1
2016-Nov-29 03:33N 58°42' E 005°23'8 8.5
2016-Nov-29 02:33N 58°35' E 005°32'8 7.8
2016-Nov-29 01:32N 58°29' E 005°41'5 4.8
2016-Nov-29 00:33N 58°25' E 005°47'4 4.4
2016-Nov-28 23:33N 58°22' E 005°54'6 6.0
2016-Nov-28 22:33N 58°18' E 006°02'8 7.7
2016-Nov-28 21:33N 58°14' E 006°13'8 7.5
2016-Nov-28 20:29N 58°08' E 006°24'6 6.8
2016-Nov-28 19:33N 58°04' E 006°34'7 6.6
2016-Nov-28 18:33N 58°01' E 006°45'7 6.6
2016-Nov-28 17:33N 57°58' E 006°56'7 7.1
2016-Nov-28 16:32N 57°56' E 007°09'113 8.7
2016-Nov-28 03:31N 57°48' E 010°42'8 7.9
2016-Nov-28 02:33N 57°45' E 010°55'7 7.1
2016-Nov-28 01:33N 57°40' E 011°04'7 7.0
2016-Nov-28 00:33N 57°35' E 011°14'7 7.1
2016-Nov-27 23:34N 57°30' E 011°23'7 6.9
2016-Nov-27 22:33N 57°24' E 011°29'7 6.9
2016-Nov-27 21:33N 57°18' E 011°34'7 6.5
2016-Nov-27 20:33N 57°12' E 011°39'64 5.6
2016-Nov-27 09:07N 56°14' E 012°27'3 5.9
2016-Nov-27 08:33N 56°11' E 012°30'7 6.9
2016-Nov-27 07:33N 56°05' E 012°37'7 6.6
2016-Nov-27 06:34N 55°59' E 012°42'8 7.7
2016-Nov-27 05:34N 55°52' E 012°44'8 7.6
2016-Nov-27 04:33N 55°44' E 012°41'8 7.9
2016-Nov-27 03:33N 55°36' E 012°42'8 8.5
2016-Nov-27 02:34N 55°28' E 012°43'9 9.0
2016-Nov-27 01:33N 55°19' E 012°42'8 8.5
2016-Nov-27 00:33N 55°16' E 012°56'9 8.8
2016-Nov-26 23:33N 55°16' E 013°12'17 8.4
2016-Nov-26 21:33N 55°15' E 013°41'8 8.2
2016-Nov-26 20:33N 55°14' E 013°55'9 8.2
2016-Nov-26 19:30N 55°14' E 014°11'7 7.4
2016-Nov-26 18:33N 55°18' E 014°21'8 8.4
2016-Nov-26 17:33N 55°24' E 014°31'7 7.5
2016-Nov-26 16:33N 55°28' E 014°42'7 7.0
2016-Nov-26 15:33N 55°31' E 014°53'6 6.2
2016-Nov-26 14:33N 55°33' E 015°04'6 6.1
2016-Nov-26 13:32N 55°33' E 015°15'7 6.3
2016-Nov-26 12:30N 55°35' E 015°26'6 6.0
2016-Nov-26 11:33N 55°37' E 015°35'  

Dump ship's entire track history